sensor_id;sensor_type;location;lat;lon;timestamp;P1;durP1;ratioP1;P2;durP2;ratioP2
803;SDS011;25687;49.976;8.240;2023-07-02T00:02:15;3.27;;;2.30;;
803;SDS011;25687;49.976;8.240;2023-07-02T00:04:42;3.47;;;1.90;;
803;SDS011;25687;49.976;8.240;2023-07-02T00:07:08;5.17;;;2.30;;
803;SDS011;25687;49.976;8.240;2023-07-02T00:09:33;3.03;;;2.37;;
803;SDS011;25687;49.976;8.240;2023-07-02T00:11:58;4.60;;;2.50;;
803;SDS011;25687;49.976;8.240;2023-07-02T00:14:24;2.67;;;2.47;;
803;SDS011;25687;49.976;8.240;2023-07-02T00:16:49;10.93;;;2.50;;
803;SDS011;25687;49.976;8.240;2023-07-02T00:19:14;4.43;;;2.50;;
803;SDS011;25687;49.976;8.240;2023-07-02T00:21:40;3.33;;;2.47;;
803;SDS011;25687;49.976;8.240;2023-07-02T00:24:07;2.90;;;2.03;;
803;SDS011;25687;49.976;8.240;2023-07-02T00:26:34;4.30;;;2.03;;
803;SDS011;25687;49.976;8.240;2023-07-02T00:29:00;5.40;;;2.60;;
803;SDS011;25687;49.976;8.240;2023-07-02T00:31:25;2.90;;;2.10;;
803;SDS011;25687;49.976;8.240;2023-07-02T00:33:51;4.27;;;2.17;;
803;SDS011;25687;49.976;8.240;2023-07-02T00:36:16;4.47;;;2.30;;
803;SDS011;25687;49.976;8.240;2023-07-02T00:38:42;3.13;;;2.07;;
803;SDS011;25687;49.976;8.240;2023-07-02T00:41:09;3.07;;;1.90;;
803;SDS011;25687;49.976;8.240;2023-07-02T00:43:35;3.90;;;2.10;;
803;SDS011;25687;49.976;8.240;2023-07-02T00:46:01;4.60;;;2.00;;
803;SDS011;25687;49.976;8.240;2023-07-02T00:48:27;2.33;;;1.87;;
803;SDS011;25687;49.976;8.240;2023-07-02T00:50:53;3.80;;;2.17;;
803;SDS011;25687;49.976;8.240;2023-07-02T00:53:18;2.80;;;2.20;;
803;SDS011;25687;49.976;8.240;2023-07-02T00:55:43;3.93;;;2.40;;
803;SDS011;25687;49.976;8.240;2023-07-02T00:58:09;3.53;;;2.10;;
803;SDS011;25687;49.976;8.240;2023-07-02T01:00:34;4.73;;;2.33;;
803;SDS011;25687;49.976;8.240;2023-07-02T01:03:00;3.50;;;1.83;;
803;SDS011;25687;49.976;8.240;2023-07-02T01:05:26;5.10;;;2.30;;
803;SDS011;25687;49.976;8.240;2023-07-02T01:08:01;4.23;;;2.20;;
803;SDS011;25687;49.976;8.240;2023-07-02T01:10:27;3.30;;;2.33;;
803;SDS011;25687;49.976;8.240;2023-07-02T01:12:53;3.97;;;2.60;;
803;SDS011;25687;49.976;8.240;2023-07-02T01:15:19;4.57;;;2.33;;
803;SDS011;25687;49.976;8.240;2023-07-02T01:17:45;5.97;;;2.30;;
803;SDS011;25687;49.976;8.240;2023-07-02T01:20:12;4.13;;;2.43;;
803;SDS011;25687;49.976;8.240;2023-07-02T01:22:38;3.47;;;2.47;;
803;SDS011;25687;49.976;8.240;2023-07-02T01:25:03;4.57;;;2.53;;
803;SDS011;25687;49.976;8.240;2023-07-02T01:27:30;4.37;;;2.27;;
803;SDS011;25687;49.976;8.240;2023-07-02T01:29:56;4.50;;;2.50;;
803;SDS011;25687;49.976;8.240;2023-07-02T01:32:22;4.77;;;2.80;;
803;SDS011;25687;49.976;8.240;2023-07-02T01:34:48;5.70;;;2.60;;
803;SDS011;25687;49.976;8.240;2023-07-02T01:37:14;5.17;;;2.77;;
803;SDS011;25687;49.976;8.240;2023-07-02T01:39:43;4.40;;;2.67;;
803;SDS011;25687;49.976;8.240;2023-07-02T01:42:09;4.03;;;2.50;;
803;SDS011;25687;49.976;8.240;2023-07-02T01:44:36;5.50;;;2.47;;
803;SDS011;25687;49.976;8.240;2023-07-02T01:47:02;4.40;;;2.90;;
803;SDS011;25687;49.976;8.240;2023-07-02T01:49:28;4.30;;;2.83;;
803;SDS011;25687;49.976;8.240;2023-07-02T01:51:54;3.80;;;2.30;;
803;SDS011;25687;49.976;8.240;2023-07-02T01:54:22;3.33;;;2.67;;
803;SDS011;25687;49.976;8.240;2023-07-02T01:56:48;5.30;;;2.60;;
803;SDS011;25687;49.976;8.240;2023-07-02T01:59:14;6.80;;;2.83;;
803;SDS011;25687;49.976;8.240;2023-07-02T02:01:40;6.47;;;3.07;;
803;SDS011;25687;49.976;8.240;2023-07-02T02:04:06;7.03;;;3.50;;
803;SDS011;25687;49.976;8.240;2023-07-02T02:06:32;5.77;;;3.50;;
803;SDS011;25687;49.976;8.240;2023-07-02T02:08:57;8.50;;;3.43;;
803;SDS011;25687;49.976;8.240;2023-07-02T02:11:23;6.77;;;3.50;;
803;SDS011;25687;49.976;8.240;2023-07-02T02:13:49;4.77;;;3.50;;
803;SDS011;25687;49.976;8.240;2023-07-02T02:16:14;3.30;;;2.87;;
803;SDS011;25687;49.976;8.240;2023-07-02T02:18:39;6.73;;;3.17;;
803;SDS011;25687;49.976;8.240;2023-07-02T02:21:05;9.93;;;3.67;;
803;SDS011;25687;49.976;8.240;2023-07-02T02:23:30;8.80;;;3.80;;
803;SDS011;25687;49.976;8.240;2023-07-02T02:25:55;6.37;;;3.63;;
803;SDS011;25687;49.976;8.240;2023-07-02T02:28:20;3.63;;;3.03;;
803;SDS011;25687;49.976;8.240;2023-07-02T02:30:46;5.33;;;3.70;;
803;SDS011;25687;49.976;8.240;2023-07-02T02:33:11;6.80;;;4.20;;
803;SDS011;25687;49.976;8.240;2023-07-02T02:35:36;6.83;;;3.73;;
803;SDS011;25687;49.976;8.240;2023-07-02T02:38:02;7.93;;;4.13;;
803;SDS011;25687;49.976;8.240;2023-07-02T02:40:29;9.13;;;4.63;;
803;SDS011;25687;49.976;8.240;2023-07-02T02:42:54;6.63;;;4.43;;
803;SDS011;25687;49.976;8.240;2023-07-02T02:45:19;5.87;;;3.73;;
803;SDS011;25687;49.976;8.240;2023-07-02T02:47:47;5.77;;;3.83;;
803;SDS011;25687;49.976;8.240;2023-07-02T02:50:13;9.37;;;4.07;;
803;SDS011;25687;49.976;8.240;2023-07-02T02:52:39;5.10;;;3.83;;
803;SDS011;25687;49.976;8.240;2023-07-02T02:55:05;5.90;;;4.50;;
803;SDS011;25687;49.976;8.240;2023-07-02T02:57:31;8.70;;;5.30;;
803;SDS011;25687;49.976;8.240;2023-07-02T02:59:57;7.40;;;4.80;;
803;SDS011;25687;49.976;8.240;2023-07-02T03:02:23;8.50;;;5.43;;
803;SDS011;25687;49.976;8.240;2023-07-02T03:04:48;8.53;;;4.70;;
803;SDS011;25687;49.976;8.240;2023-07-02T03:07:14;8.10;;;5.03;;
803;SDS011;25687;49.976;8.240;2023-07-02T03:09:40;7.70;;;5.67;;
803;SDS011;25687;49.976;8.240;2023-07-02T03:12:05;7.63;;;5.17;;
803;SDS011;25687;49.976;8.240;2023-07-02T03:14:31;10.33;;;5.87;;
803;SDS011;25687;49.976;8.240;2023-07-02T03:16:56;9.90;;;5.70;;
803;SDS011;25687;49.976;8.240;2023-07-02T03:19:21;9.20;;;5.63;;
803;SDS011;25687;49.976;8.240;2023-07-02T03:21:47;9.10;;;5.37;;
803;SDS011;25687;49.976;8.240;2023-07-02T03:24:12;8.80;;;5.93;;
803;SDS011;25687;49.976;8.240;2023-07-02T03:26:38;11.40;;;5.73;;
803;SDS011;25687;49.976;8.240;2023-07-02T03:29:04;8.83;;;5.03;;
803;SDS011;25687;49.976;8.240;2023-07-02T03:31:29;9.97;;;5.90;;
803;SDS011;25687;49.976;8.240;2023-07-02T03:33:55;12.37;;;5.63;;
803;SDS011;25687;49.976;8.240;2023-07-02T03:36:20;10.47;;;6.37;;
803;SDS011;25687;49.976;8.240;2023-07-02T03:38:45;12.43;;;5.87;;
803;SDS011;25687;49.976;8.240;2023-07-02T03:41:10;9.17;;;6.00;;
803;SDS011;25687;49.976;8.240;2023-07-02T03:43:36;8.63;;;6.07;;
803;SDS011;25687;49.976;8.240;2023-07-02T03:46:01;12.57;;;6.00;;
803;SDS011;25687;49.976;8.240;2023-07-02T03:48:26;9.53;;;5.50;;
803;SDS011;25687;49.976;8.240;2023-07-02T03:50:51;12.13;;;5.83;;
803;SDS011;25687;49.976;8.240;2023-07-02T03:53:17;11.00;;;6.30;;
803;SDS011;25687;49.976;8.240;2023-07-02T03:55:42;9.50;;;6.37;;
803;SDS011;25687;49.976;8.240;2023-07-02T03:58:07;11.23;;;6.63;;
803;SDS011;25687;49.976;8.240;2023-07-02T04:00:32;13.53;;;6.60;;
803;SDS011;25687;49.976;8.240;2023-07-02T04:02:58;11.87;;;5.80;;
803;SDS011;25687;49.976;8.240;2023-07-02T04:05:23;9.70;;;6.20;;
803;SDS011;25687;49.976;8.240;2023-07-02T04:07:48;10.43;;;5.73;;
803;SDS011;25687;49.976;8.240;2023-07-02T04:10:14;10.23;;;5.43;;
803;SDS011;25687;49.976;8.240;2023-07-02T04:12:39;11.70;;;6.40;;
803;SDS011;25687;49.976;8.240;2023-07-02T04:15:04;8.23;;;5.60;;
803;SDS011;25687;49.976;8.240;2023-07-02T04:17:30;8.73;;;6.37;;
803;SDS011;25687;49.976;8.240;2023-07-02T04:19:55;11.33;;;6.27;;
803;SDS011;25687;49.976;8.240;2023-07-02T04:22:22;8.83;;;6.17;;
803;SDS011;25687;49.976;8.240;2023-07-02T04:24:48;11.80;;;6.23;;
803;SDS011;25687;49.976;8.240;2023-07-02T04:27:14;8.63;;;6.63;;
803;SDS011;25687;49.976;8.240;2023-07-02T04:29:43;10.10;;;6.10;;
803;SDS011;25687;49.976;8.240;2023-07-02T04:32:08;7.93;;;5.77;;
803;SDS011;25687;49.976;8.240;2023-07-02T04:34:34;18.03;;;7.77;;
803;SDS011;25687;49.976;8.240;2023-07-02T04:37:01;9.73;;;6.70;;
803;SDS011;25687;49.976;8.240;2023-07-02T04:39:26;7.63;;;5.77;;
803;SDS011;25687;49.976;8.240;2023-07-02T04:41:52;7.57;;;5.90;;
803;SDS011;25687;49.976;8.240;2023-07-02T04:44:17;9.90;;;6.43;;
803;SDS011;25687;49.976;8.240;2023-07-02T04:46:43;9.87;;;5.73;;
803;SDS011;25687;49.976;8.240;2023-07-02T04:49:08;9.30;;;6.53;;
803;SDS011;25687;49.976;8.240;2023-07-02T04:51:33;13.10;;;6.13;;
803;SDS011;25687;49.976;8.240;2023-07-02T04:53:58;9.23;;;6.17;;
803;SDS011;25687;49.976;8.240;2023-07-02T04:56:24;9.20;;;6.00;;
803;SDS011;25687;49.976;8.240;2023-07-02T04:58:49;8.87;;;6.27;;
803;SDS011;25687;49.976;8.240;2023-07-02T05:01:14;11.13;;;7.20;;
803;SDS011;25687;49.976;8.240;2023-07-02T05:03:39;13.83;;;7.40;;
803;SDS011;25687;49.976;8.240;2023-07-02T05:06:05;11.03;;;6.73;;
803;SDS011;25687;49.976;8.240;2023-07-02T05:08:30;12.30;;;7.97;;
803;SDS011;25687;49.976;8.240;2023-07-02T05:10:55;11.47;;;7.87;;
803;SDS011;25687;49.976;8.240;2023-07-02T05:13:20;14.60;;;8.33;;
803;SDS011;25687;49.976;8.240;2023-07-02T05:15:46;17.70;;;8.73;;
803;SDS011;25687;49.976;8.240;2023-07-02T05:18:11;14.07;;;8.37;;
803;SDS011;25687;49.976;8.240;2023-07-02T05:20:37;17.03;;;9.27;;
803;SDS011;25687;49.976;8.240;2023-07-02T05:23:02;13.83;;;9.30;;
803;SDS011;25687;49.976;8.240;2023-07-02T05:25:27;11.50;;;9.03;;
803;SDS011;25687;49.976;8.240;2023-07-02T05:27:53;18.67;;;10.33;;
803;SDS011;25687;49.976;8.240;2023-07-02T05:30:18;15.77;;;9.50;;
803;SDS011;25687;49.976;8.240;2023-07-02T05:32:43;12.73;;;9.00;;
803;SDS011;25687;49.976;8.240;2023-07-02T05:35:08;12.87;;;8.90;;
803;SDS011;25687;49.976;8.240;2023-07-02T05:37:34;12.50;;;8.87;;
803;SDS011;25687;49.976;8.240;2023-07-02T05:39:59;14.13;;;9.50;;
803;SDS011;25687;49.976;8.240;2023-07-02T05:42:24;14.33;;;9.37;;
803;SDS011;25687;49.976;8.240;2023-07-02T05:44:49;17.03;;;9.40;;
803;SDS011;25687;49.976;8.240;2023-07-02T05:47:15;11.67;;;8.53;;
803;SDS011;25687;49.976;8.240;2023-07-02T05:49:41;13.57;;;9.00;;
803;SDS011;25687;49.976;8.240;2023-07-02T05:52:07;12.47;;;8.50;;
803;SDS011;25687;49.976;8.240;2023-07-02T05:54:33;14.33;;;9.07;;
803;SDS011;25687;49.976;8.240;2023-07-02T05:56:58;11.33;;;9.73;;
803;SDS011;25687;49.976;8.240;2023-07-02T05:59:23;14.43;;;8.67;;
803;SDS011;25687;49.976;8.240;2023-07-02T06:01:48;13.43;;;9.37;;
803;SDS011;25687;49.976;8.240;2023-07-02T06:04:14;13.23;;;9.17;;
803;SDS011;25687;49.976;8.240;2023-07-02T06:06:39;15.70;;;9.60;;
803;SDS011;25687;49.976;8.240;2023-07-02T06:09:04;13.37;;;9.27;;
803;SDS011;25687;49.976;8.240;2023-07-02T06:11:29;13.57;;;9.67;;
803;SDS011;25687;49.976;8.240;2023-07-02T06:13:55;15.30;;;9.97;;
803;SDS011;25687;49.976;8.240;2023-07-02T06:16:20;15.80;;;10.47;;
803;SDS011;25687;49.976;8.240;2023-07-02T06:18:45;15.17;;;10.70;;
803;SDS011;25687;49.976;8.240;2023-07-02T06:21:11;15.00;;;10.20;;
803;SDS011;25687;49.976;8.240;2023-07-02T06:23:40;15.77;;;10.23;;
803;SDS011;25687;49.976;8.240;2023-07-02T06:26:08;20.07;;;11.77;;
803;SDS011;25687;49.976;8.240;2023-07-02T06:28:33;15.93;;;11.03;;
803;SDS011;25687;49.976;8.240;2023-07-02T06:30:59;14.80;;;10.87;;
803;SDS011;25687;49.976;8.240;2023-07-02T06:33:24;16.93;;;11.03;;
803;SDS011;25687;49.976;8.240;2023-07-02T06:35:49;17.87;;;10.67;;
803;SDS011;25687;49.976;8.240;2023-07-02T06:38:15;17.80;;;10.80;;
803;SDS011;25687;49.976;8.240;2023-07-02T06:40:40;21.87;;;11.90;;
803;SDS011;25687;49.976;8.240;2023-07-02T06:43:05;18.97;;;11.47;;
803;SDS011;25687;49.976;8.240;2023-07-02T06:45:30;18.03;;;11.27;;
803;SDS011;25687;49.976;8.240;2023-07-02T06:47:56;12.57;;;10.73;;
803;SDS011;25687;49.976;8.240;2023-07-02T06:50:21;19.67;;;12.17;;
803;SDS011;25687;49.976;8.240;2023-07-02T06:52:47;18.23;;;11.27;;
803;SDS011;25687;49.976;8.240;2023-07-02T06:55:13;15.33;;;11.93;;
803;SDS011;25687;49.976;8.240;2023-07-02T06:57:41;19.83;;;11.77;;
803;SDS011;25687;49.976;8.240;2023-07-02T07:00:10;12.77;;;10.23;;
803;SDS011;25687;49.976;8.240;2023-07-02T07:02:39;16.43;;;11.13;;
803;SDS011;25687;49.976;8.240;2023-07-02T07:05:05;14.70;;;10.45;;
803;SDS011;25687;49.976;8.240;2023-07-02T07:07:31;18.20;;;11.02;;
803;SDS011;25687;49.976;8.240;2023-07-02T07:09:57;15.00;;;11.27;;
803;SDS011;25687;49.976;8.240;2023-07-02T07:12:22;16.27;;;11.50;;
803;SDS011;25687;49.976;8.240;2023-07-02T07:14:47;14.13;;;11.25;;
803;SDS011;25687;49.976;8.240;2023-07-02T07:17:12;15.30;;;10.38;;
803;SDS011;25687;49.976;8.240;2023-07-02T07:19:38;13.07;;;10.48;;
803;SDS011;25687;49.976;8.240;2023-07-02T07:22:03;15.98;;;11.98;;
803;SDS011;25687;49.976;8.240;2023-07-02T07:24:28;14.85;;;11.43;;
803;SDS011;25687;49.976;8.240;2023-07-02T07:26:53;13.82;;;11.00;;
803;SDS011;25687;49.976;8.240;2023-07-02T07:29:19;13.18;;;10.30;;
803;SDS011;25687;49.976;8.240;2023-07-02T07:31:45;17.13;;;11.23;;
803;SDS011;25687;49.976;8.240;2023-07-02T07:34:11;15.38;;;11.60;;
803;SDS011;25687;49.976;8.240;2023-07-02T07:36:36;15.32;;;10.63;;
803;SDS011;25687;49.976;8.240;2023-07-02T07:39:02;13.90;;;11.10;;
803;SDS011;25687;49.976;8.240;2023-07-02T07:41:27;14.10;;;10.73;;
803;SDS011;25687;49.976;8.240;2023-07-02T07:43:53;12.55;;;10.38;;
803;SDS011;25687;49.976;8.240;2023-07-02T07:46:18;13.93;;;11.13;;
803;SDS011;25687;49.976;8.240;2023-07-02T07:48:44;13.93;;;11.18;;
803;SDS011;25687;49.976;8.240;2023-07-02T07:51:09;12.25;;;10.60;;
803;SDS011;25687;49.976;8.240;2023-07-02T07:53:37;19.75;;;10.85;;
803;SDS011;25687;49.976;8.240;2023-07-02T07:56:03;11.98;;;10.68;;
803;SDS011;25687;49.976;8.240;2023-07-02T07:58:28;25.27;;;11.63;;
803;SDS011;25687;49.976;8.240;2023-07-02T08:00:54;57.65;;;11.18;;
803;SDS011;25687;49.976;8.240;2023-07-02T08:03:19;13.75;;;10.93;;
803;SDS011;25687;49.976;8.240;2023-07-02T08:05:44;25.27;;;12.05;;
803;SDS011;25687;49.976;8.240;2023-07-02T08:08:09;28.15;;;11.63;;
803;SDS011;25687;49.976;8.240;2023-07-02T08:10:35;13.45;;;11.30;;
803;SDS011;25687;49.976;8.240;2023-07-02T08:13:00;13.13;;;10.40;;
803;SDS011;25687;49.976;8.240;2023-07-02T08:15:25;16.17;;;11.07;;
803;SDS011;25687;49.976;8.240;2023-07-02T08:17:50;15.00;;;11.73;;
803;SDS011;25687;49.976;8.240;2023-07-02T08:20:19;15.55;;;11.73;;
803;SDS011;25687;49.976;8.240;2023-07-02T08:22:45;14.50;;;11.55;;
803;SDS011;25687;49.976;8.240;2023-07-02T08:25:10;14.90;;;11.65;;
803;SDS011;25687;49.976;8.240;2023-07-02T08:27:35;16.55;;;12.02;;
803;SDS011;25687;49.976;8.240;2023-07-02T08:30:00;15.10;;;10.68;;
803;SDS011;25687;49.976;8.240;2023-07-02T08:32:26;12.43;;;10.55;;
803;SDS011;25687;49.976;8.240;2023-07-02T08:34:51;15.15;;;11.38;;
803;SDS011;25687;49.976;8.240;2023-07-02T08:37:20;11.40;;;9.88;;
803;SDS011;25687;49.976;8.240;2023-07-02T08:39:46;17.35;;;11.50;;
803;SDS011;25687;49.976;8.240;2023-07-02T08:42:11;13.32;;;10.75;;
803;SDS011;25687;49.976;8.240;2023-07-02T08:44:36;15.05;;;11.20;;
803;SDS011;25687;49.976;8.240;2023-07-02T08:47:02;13.20;;;10.83;;
803;SDS011;25687;49.976;8.240;2023-07-02T08:49:28;13.88;;;10.52;;
803;SDS011;25687;49.976;8.240;2023-07-02T08:51:53;14.85;;;10.80;;
803;SDS011;25687;49.976;8.240;2023-07-02T08:54:19;12.35;;;10.18;;
803;SDS011;25687;49.976;8.240;2023-07-02T08:56:45;14.65;;;10.65;;
803;SDS011;25687;49.976;8.240;2023-07-02T08:59:11;13.75;;;10.80;;
803;SDS011;25687;49.976;8.240;2023-07-02T09:01:50;21.03;;;11.60;;
803;SDS011;25687;49.976;8.240;2023-07-02T09:04:20;17.67;;;12.27;;
803;SDS011;25687;49.976;8.240;2023-07-02T09:06:48;14.70;;;11.07;;
803;SDS011;25687;49.976;8.240;2023-07-02T09:09:14;15.00;;;9.50;;
803;SDS011;25687;49.976;8.240;2023-07-02T09:11:51;15.37;;;9.97;;
803;SDS011;25687;49.976;8.240;2023-07-02T09:14:29;15.75;;;10.30;;
803;SDS011;25687;49.976;8.240;2023-07-02T09:17:02;21.00;;;10.35;;
803;SDS011;25687;49.976;8.240;2023-07-02T09:19:31;12.75;;;10.30;;
803;SDS011;25687;49.976;8.240;2023-07-02T09:21:57;13.45;;;10.43;;
803;SDS011;25687;49.976;8.240;2023-07-02T09:24:27;14.98;;;10.10;;
803;SDS011;25687;49.976;8.240;2023-07-02T09:26:54;14.48;;;9.77;;
803;SDS011;25687;49.976;8.240;2023-07-02T09:29:27;13.65;;;10.23;;
803;SDS011;25687;49.976;8.240;2023-07-02T09:31:59;12.32;;;10.32;;
803;SDS011;25687;49.976;8.240;2023-07-02T09:34:36;16.00;;;10.60;;
803;SDS011;25687;49.976;8.240;2023-07-02T09:37:03;11.63;;;8.82;;
803;SDS011;25687;49.976;8.240;2023-07-02T09:39:33;12.93;;;10.20;;
803;SDS011;25687;49.976;8.240;2023-07-02T09:42:00;18.67;;;10.60;;
803;SDS011;25687;49.976;8.240;2023-07-02T09:44:30;14.50;;;10.93;;
803;SDS011;25687;49.976;8.240;2023-07-02T09:47:03;16.65;;;10.55;;
803;SDS011;25687;49.976;8.240;2023-07-02T09:49:33;18.48;;;10.57;;
803;SDS011;25687;49.976;8.240;2023-07-02T09:52:06;18.37;;;10.30;;
803;SDS011;25687;49.976;8.240;2023-07-02T09:54:33;17.17;;;9.70;;
803;SDS011;25687;49.976;8.240;2023-07-02T09:56:58;14.27;;;9.77;;
803;SDS011;25687;49.976;8.240;2023-07-02T09:59:24;11.52;;;10.13;;
803;SDS011;25687;49.976;8.240;2023-07-02T10:01:50;12.27;;;9.27;;
803;SDS011;25687;49.976;8.240;2023-07-02T10:04:17;14.45;;;10.85;;
803;SDS011;25687;49.976;8.240;2023-07-02T10:06:47;12.95;;;9.77;;
803;SDS011;25687;49.976;8.240;2023-07-02T10:09:14;11.13;;;9.77;;
803;SDS011;25687;49.976;8.240;2023-07-02T10:11:40;10.25;;;8.57;;
803;SDS011;25687;49.976;8.240;2023-07-02T10:14:05;15.90;;;9.48;;
803;SDS011;25687;49.976;8.240;2023-07-02T10:16:30;11.43;;;9.70;;
803;SDS011;25687;49.976;8.240;2023-07-02T10:19:09;9.45;;;7.78;;
803;SDS011;25687;49.976;8.240;2023-07-02T10:21:37;9.75;;;8.05;;
803;SDS011;25687;49.976;8.240;2023-07-02T10:24:16;11.85;;;9.38;;
803;SDS011;25687;49.976;8.240;2023-07-02T10:26:58;11.18;;;9.15;;
803;SDS011;25687;49.976;8.240;2023-07-02T10:29:24;13.80;;;9.20;;
803;SDS011;25687;49.976;8.240;2023-07-02T10:31:51;11.10;;;9.55;;
803;SDS011;25687;49.976;8.240;2023-07-02T10:34:33;11.10;;;9.48;;
803;SDS011;25687;49.976;8.240;2023-07-02T10:37:00;11.20;;;9.75;;
803;SDS011;25687;49.976;8.240;2023-07-02T10:39:26;14.68;;;11.10;;
803;SDS011;25687;49.976;8.240;2023-07-02T10:42:02;12.77;;;10.40;;
803;SDS011;25687;49.976;8.240;2023-07-02T10:44:28;13.05;;;10.73;;
803;SDS011;25687;49.976;8.240;2023-07-02T10:46:54;11.20;;;9.93;;
803;SDS011;25687;49.976;8.240;2023-07-02T10:49:20;11.57;;;9.65;;
803;SDS011;25687;49.976;8.240;2023-07-02T10:52:00;18.05;;;11.25;;
803;SDS011;25687;49.976;8.240;2023-07-02T10:57:23;13.25;;;11.23;;
803;SDS011;25687;49.976;8.240;2023-07-02T10:59:48;13.65;;;10.65;;
803;SDS011;25687;49.976;8.240;2023-07-02T11:02:14;13.25;;;11.18;;
803;SDS011;25687;49.976;8.240;2023-07-02T11:04:40;13.05;;;10.02;;
803;SDS011;25687;49.976;8.240;2023-07-02T11:07:05;20.63;;;11.35;;
803;SDS011;25687;49.976;8.240;2023-07-02T11:09:31;14.32;;;12.07;;
803;SDS011;25687;49.976;8.240;2023-07-02T11:11:58;17.13;;;11.70;;
803;SDS011;25687;49.976;8.240;2023-07-02T11:14:31;16.25;;;11.20;;
803;SDS011;25687;49.976;8.240;2023-07-02T11:16:58;15.60;;;11.75;;
803;SDS011;25687;49.976;8.240;2023-07-02T11:19:25;16.85;;;11.55;;
803;SDS011;25687;49.976;8.240;2023-07-02T11:21:51;17.80;;;11.20;;
803;SDS011;25687;49.976;8.240;2023-07-02T11:24:25;14.38;;;11.70;;
803;SDS011;25687;49.976;8.240;2023-07-02T11:27:01;16.52;;;11.55;;
803;SDS011;25687;49.976;8.240;2023-07-02T11:29:29;14.73;;;11.98;;
803;SDS011;25687;49.976;8.240;2023-07-02T11:31:55;13.00;;;10.93;;
803;SDS011;25687;49.976;8.240;2023-07-02T11:34:29;20.50;;;12.75;;
803;SDS011;25687;49.976;8.240;2023-07-02T11:36:55;15.45;;;11.90;;
803;SDS011;25687;49.976;8.240;2023-07-02T11:39:20;20.08;;;11.70;;
803;SDS011;25687;49.976;8.240;2023-07-02T11:41:47;13.95;;;12.00;;
803;SDS011;25687;49.976;8.240;2023-07-02T11:44:13;15.80;;;12.30;;
803;SDS011;25687;49.976;8.240;2023-07-02T11:46:38;15.82;;;12.65;;
803;SDS011;25687;49.976;8.240;2023-07-02T11:49:03;17.10;;;12.13;;
803;SDS011;25687;49.976;8.240;2023-07-02T11:51:30;15.15;;;12.10;;
803;SDS011;25687;49.976;8.240;2023-07-02T11:53:56;17.42;;;12.13;;
803;SDS011;25687;49.976;8.240;2023-07-02T11:56:21;16.05;;;11.63;;
803;SDS011;25687;49.976;8.240;2023-07-02T11:58:46;18.52;;;11.30;;
803;SDS011;25687;49.976;8.240;2023-07-02T12:01:12;14.48;;;10.77;;
803;SDS011;25687;49.976;8.240;2023-07-02T12:03:37;16.25;;;12.25;;
803;SDS011;25687;49.976;8.240;2023-07-02T12:06:02;13.77;;;10.60;;
803;SDS011;25687;49.976;8.240;2023-07-02T12:08:28;12.98;;;10.75;;
803;SDS011;25687;49.976;8.240;2023-07-02T12:10:53;14.40;;;10.98;;
803;SDS011;25687;49.976;8.240;2023-07-02T12:13:18;15.13;;;10.43;;
803;SDS011;25687;49.976;8.240;2023-07-02T12:15:46;12.80;;;10.45;;
803;SDS011;25687;49.976;8.240;2023-07-02T12:18:16;13.80;;;11.50;;
803;SDS011;25687;49.976;8.240;2023-07-02T12:20:41;15.93;;;10.82;;
803;SDS011;25687;49.976;8.240;2023-07-02T12:23:06;14.85;;;11.27;;
803;SDS011;25687;49.976;8.240;2023-07-02T12:25:32;17.98;;;10.95;;
803;SDS011;25687;49.976;8.240;2023-07-02T12:27:57;15.15;;;11.32;;
803;SDS011;25687;49.976;8.240;2023-07-02T12:30:22;15.95;;;11.95;;
803;SDS011;25687;49.976;8.240;2023-07-02T12:32:48;14.05;;;11.05;;
803;SDS011;25687;49.976;8.240;2023-07-02T12:35:13;21.90;;;12.00;;
803;SDS011;25687;49.976;8.240;2023-07-02T12:37:42;13.02;;;10.85;;
803;SDS011;25687;49.976;8.240;2023-07-02T12:40:11;18.08;;;12.23;;
803;SDS011;25687;49.976;8.240;2023-07-02T12:42:37;16.10;;;11.27;;
803;SDS011;25687;49.976;8.240;2023-07-02T12:45:03;13.85;;;10.77;;
803;SDS011;25687;49.976;8.240;2023-07-02T12:47:30;14.82;;;10.85;;
803;SDS011;25687;49.976;8.240;2023-07-02T12:49:55;16.15;;;12.00;;
803;SDS011;25687;49.976;8.240;2023-07-02T12:52:20;16.55;;;11.57;;
803;SDS011;25687;49.976;8.240;2023-07-02T12:54:46;18.42;;;11.93;;
803;SDS011;25687;49.976;8.240;2023-07-02T12:57:11;15.60;;;12.02;;
803;SDS011;25687;49.976;8.240;2023-07-02T12:59:36;14.95;;;11.45;;
803;SDS011;25687;49.976;8.240;2023-07-02T13:02:01;14.38;;;12.15;;
803;SDS011;25687;49.976;8.240;2023-07-02T13:04:27;17.02;;;11.98;;
803;SDS011;25687;49.976;8.240;2023-07-02T13:06:52;17.58;;;11.77;;
803;SDS011;25687;49.976;8.240;2023-07-02T13:09:17;17.85;;;12.00;;
803;SDS011;25687;49.976;8.240;2023-07-02T13:11:43;17.15;;;11.63;;
803;SDS011;25687;49.976;8.240;2023-07-02T13:14:08;18.60;;;11.63;;
803;SDS011;25687;49.976;8.240;2023-07-02T13:16:33;14.55;;;11.43;;
803;SDS011;25687;49.976;8.240;2023-07-02T13:18:59;14.30;;;11.00;;
803;SDS011;25687;49.976;8.240;2023-07-02T13:21:26;13.82;;;11.15;;
803;SDS011;25687;49.976;8.240;2023-07-02T13:23:51;16.60;;;11.50;;
803;SDS011;25687;49.976;8.240;2023-07-02T13:26:17;15.98;;;11.32;;
803;SDS011;25687;49.976;8.240;2023-07-02T13:28:42;14.70;;;11.98;;
803;SDS011;25687;49.976;8.240;2023-07-02T13:31:07;16.65;;;11.55;;
803;SDS011;25687;49.976;8.240;2023-07-02T13:33:34;12.68;;;10.60;;
803;SDS011;25687;49.976;8.240;2023-07-02T13:35:59;15.38;;;11.95;;
803;SDS011;25687;49.976;8.240;2023-07-02T13:38:24;21.07;;;11.67;;
803;SDS011;25687;49.976;8.240;2023-07-02T13:40:50;15.80;;;12.00;;
803;SDS011;25687;49.976;8.240;2023-07-02T13:43:15;14.65;;;12.32;;
803;SDS011;25687;49.976;8.240;2023-07-02T13:45:40;17.07;;;11.93;;
803;SDS011;25687;49.976;8.240;2023-07-02T13:48:06;18.23;;;14.20;;
803;SDS011;25687;49.976;8.240;2023-07-02T13:50:31;25.50;;;18.20;;
803;SDS011;25687;49.976;8.240;2023-07-02T13:52:56;18.40;;;15.30;;
803;SDS011;25687;49.976;8.240;2023-07-02T13:55:21;16.37;;;12.73;;
803;SDS011;25687;49.976;8.240;2023-07-02T13:57:52;16.80;;;12.80;;
803;SDS011;25687;49.976;8.240;2023-07-02T14:00:19;16.48;;;12.25;;
803;SDS011;25687;49.976;8.240;2023-07-02T14:02:44;15.07;;;11.93;;
803;SDS011;25687;49.976;8.240;2023-07-02T14:05:10;16.85;;;12.60;;
803;SDS011;25687;49.976;8.240;2023-07-02T14:07:35;17.35;;;13.23;;
803;SDS011;25687;49.976;8.240;2023-07-02T14:10:00;23.98;;;12.18;;
803;SDS011;25687;49.976;8.240;2023-07-02T14:12:25;14.93;;;12.40;;
803;SDS011;25687;49.976;8.240;2023-07-02T14:14:51;16.77;;;12.70;;
803;SDS011;25687;49.976;8.240;2023-07-02T14:17:16;17.00;;;12.97;;
803;SDS011;25687;49.976;8.240;2023-07-02T14:19:41;14.95;;;11.98;;
803;SDS011;25687;49.976;8.240;2023-07-02T14:22:08;17.88;;;12.30;;
803;SDS011;25687;49.976;8.240;2023-07-02T14:24:33;19.73;;;12.97;;
803;SDS011;25687;49.976;8.240;2023-07-02T14:26:59;21.52;;;13.45;;
803;SDS011;25687;49.976;8.240;2023-07-02T14:29:24;17.20;;;13.30;;
803;SDS011;25687;49.976;8.240;2023-07-02T14:31:49;18.80;;;14.30;;
803;SDS011;25687;49.976;8.240;2023-07-02T14:34:14;16.92;;;13.63;;
803;SDS011;25687;49.976;8.240;2023-07-02T14:36:40;18.08;;;12.50;;
803;SDS011;25687;49.976;8.240;2023-07-02T14:39:05;15.35;;;11.85;;
803;SDS011;25687;49.976;8.240;2023-07-02T14:41:30;16.07;;;12.20;;
803;SDS011;25687;49.976;8.240;2023-07-02T14:44:00;18.15;;;12.02;;
803;SDS011;25687;49.976;8.240;2023-07-02T14:46:26;18.40;;;12.33;;
803;SDS011;25687;49.976;8.240;2023-07-02T14:48:51;15.50;;;12.00;;
803;SDS011;25687;49.976;8.240;2023-07-02T14:51:18;22.27;;;12.83;;
803;SDS011;25687;49.976;8.240;2023-07-02T14:53:43;15.43;;;12.20;;
803;SDS011;25687;49.976;8.240;2023-07-02T14:56:08;18.93;;;12.17;;